Terminal Aerodrome Forecast
Issued by NWS Lake Charles, LA

Home | Current Version | Previous Version | Text Only | Print | Product List | Glossary On
Versions: 1 2 3 4 5 6 7 8 9 10 11 12 13 14 15 16 17 18 19 20 21 22 23
000
FTUS44 KLCH 222322
TAFARA
TAF
KARA 222322Z 2300/2324 11009KT P6SM -SHRA BKN015 OVC030
      TEMPO 2301/2305 2SM TSRA OVC012CB
     FM230500 16006KT 5SM BR VCSH OVC010
     FM230900 27006KT 5SM BR VCSH OVC006
     FM231500 34007KT P6SM OVC015
     FM232000 34007KT P6SM BKN050=

USA.gov is the U.S. government's official web portal to all federal, state and local government web resources and services.